sensor_id;sensor_type;location;lat;lon;timestamp;P1;durP1;ratioP1;P2;durP2;ratioP2
66542;SDS011;53395;37.360;-122.046;2024-01-30T00:02:25;8.80;;;1.90;;
66542;SDS011;53395;37.360;-122.046;2024-01-30T00:05:10;6.53;;;2.20;;
66542;SDS011;53395;37.360;-122.046;2024-01-30T00:07:54;8.00;;;1.70;;
66542;SDS011;53395;37.360;-122.046;2024-01-30T00:10:39;5.45;;;1.92;;
66542;SDS011;53395;37.360;-122.046;2024-01-30T00:13:24;4.50;;;1.80;;
66542;SDS011;53395;37.360;-122.046;2024-01-30T00:16:08;6.55;;;2.35;;
66542;SDS011;53395;37.360;-122.046;2024-01-30T00:18:53;6.25;;;1.80;;
66542;SDS011;53395;37.360;-122.046;2024-01-30T00:21:38;7.60;;;2.67;;
66542;SDS011;53395;37.360;-122.046;2024-01-30T00:24:22;6.32;;;2.47;;
66542;SDS011;53395;37.360;-122.046;2024-01-30T00:27:07;8.70;;;2.40;;
66542;SDS011;53395;37.360;-122.046;2024-01-30T00:32:36;7.88;;;2.25;;
66542;SDS011;53395;37.360;-122.046;2024-01-30T00:35:21;7.28;;;2.40;;
66542;SDS011;53395;37.360;-122.046;2024-01-30T00:38:06;9.93;;;2.33;;
66542;SDS011;53395;37.360;-122.046;2024-01-30T00:40:51;4.57;;;2.10;;
66542;SDS011;53395;37.360;-122.046;2024-01-30T00:43:36;6.03;;;2.10;;
66542;SDS011;53395;37.360;-122.046;2024-01-30T00:46:20;6.75;;;2.17;;
66542;SDS011;53395;37.360;-122.046;2024-01-30T00:49:05;7.53;;;2.38;;
66542;SDS011;53395;37.360;-122.046;2024-01-30T00:51:49;4.82;;;2.28;;
66542;SDS011;53395;37.360;-122.046;2024-01-30T00:54:34;7.18;;;2.05;;
66542;SDS011;53395;37.360;-122.046;2024-01-30T00:57:18;5.70;;;2.00;;
66542;SDS011;53395;37.360;-122.046;2024-01-30T01:00:03;7.50;;;2.03;;
66542;SDS011;53395;37.360;-122.046;2024-01-30T01:02:49;9.80;;;2.38;;
66542;SDS011;53395;37.360;-122.046;2024-01-30T01:05:34;4.28;;;1.90;;
66542;SDS011;53395;37.360;-122.046;2024-01-30T01:08:18;7.70;;;2.15;;
66542;SDS011;53395;37.360;-122.046;2024-01-30T01:11:03;5.30;;;1.90;;
66542;SDS011;53395;37.360;-122.046;2024-01-30T01:13:47;6.30;;;2.10;;
66542;SDS011;53395;37.360;-122.046;2024-01-30T01:16:32;4.15;;;1.85;;
66542;SDS011;53395;37.360;-122.046;2024-01-30T01:19:17;4.18;;;2.20;;
66542;SDS011;53395;37.360;-122.046;2024-01-30T01:22:01;5.30;;;2.08;;
66542;SDS011;53395;37.360;-122.046;2024-01-30T01:24:47;3.85;;;1.88;;
66542;SDS011;53395;37.360;-122.046;2024-01-30T01:27:31;5.28;;;1.90;;
66542;SDS011;53395;37.360;-122.046;2024-01-30T01:30:17;7.65;;;2.30;;
66542;SDS011;53395;37.360;-122.046;2024-01-30T01:33:07;8.43;;;2.35;;
66542;SDS011;53395;37.360;-122.046;2024-01-30T01:35:53;5.10;;;2.10;;
66542;SDS011;53395;37.360;-122.046;2024-01-30T01:38:37;5.22;;;1.90;;
66542;SDS011;53395;37.360;-122.046;2024-01-30T01:41:22;6.35;;;2.20;;
66542;SDS011;53395;37.360;-122.046;2024-01-30T01:44:06;6.65;;;2.13;;
66542;SDS011;53395;37.360;-122.046;2024-01-30T01:46:51;5.38;;;2.03;;
66542;SDS011;53395;37.360;-122.046;2024-01-30T01:49:36;5.28;;;2.40;;
66542;SDS011;53395;37.360;-122.046;2024-01-30T01:52:20;7.28;;;2.30;;
66542;SDS011;53395;37.360;-122.046;2024-01-30T01:55:05;5.85;;;2.22;;
66542;SDS011;53395;37.360;-122.046;2024-01-30T01:57:50;10.20;;;2.10;;
66542;SDS011;53395;37.360;-122.046;2024-01-30T02:00:34;6.75;;;2.20;;
66542;SDS011;53395;37.360;-122.046;2024-01-30T02:03:23;6.38;;;2.30;;
66542;SDS011;53395;37.360;-122.046;2024-01-30T02:06:07;5.70;;;2.28;;
66542;SDS011;53395;37.360;-122.046;2024-01-30T02:08:52;9.32;;;2.92;;
66542;SDS011;53395;37.360;-122.046;2024-01-30T02:11:36;6.80;;;2.53;;
66542;SDS011;53395;37.360;-122.046;2024-01-30T02:14:21;5.53;;;2.30;;
66542;SDS011;53395;37.360;-122.046;2024-01-30T02:17:05;4.82;;;2.28;;
66542;SDS011;53395;37.360;-122.046;2024-01-30T02:19:50;4.85;;;2.28;;
66542;SDS011;53395;37.360;-122.046;2024-01-30T02:22:34;6.43;;;2.50;;
66542;SDS011;53395;37.360;-122.046;2024-01-30T02:25:19;7.00;;;2.33;;
66542;SDS011;53395;37.360;-122.046;2024-01-30T02:28:04;5.93;;;2.15;;
66542;SDS011;53395;37.360;-122.046;2024-01-30T02:30:48;8.98;;;2.58;;
66542;SDS011;53395;37.360;-122.046;2024-01-30T02:33:32;9.55;;;2.90;;
66542;SDS011;53395;37.360;-122.046;2024-01-30T02:36:17;4.30;;;2.30;;
66542;SDS011;53395;37.360;-122.046;2024-01-30T02:39:02;4.95;;;2.60;;
66542;SDS011;53395;37.360;-122.046;2024-01-30T02:41:47;5.35;;;2.35;;
66542;SDS011;53395;37.360;-122.046;2024-01-30T02:44:31;6.57;;;2.60;;
66542;SDS011;53395;37.360;-122.046;2024-01-30T02:47:15;7.45;;;2.75;;
66542;SDS011;53395;37.360;-122.046;2024-01-30T02:49:59;5.68;;;2.55;;
66542;SDS011;53395;37.360;-122.046;2024-01-30T02:52:44;8.00;;;2.47;;
66542;SDS011;53395;37.360;-122.046;2024-01-30T02:55:29;4.53;;;2.63;;
66542;SDS011;53395;37.360;-122.046;2024-01-30T02:58:13;7.72;;;2.83;;
66542;SDS011;53395;37.360;-122.046;2024-01-30T03:00:58;9.43;;;2.88;;
66542;SDS011;53395;37.360;-122.046;2024-01-30T03:03:42;6.55;;;2.63;;
66542;SDS011;53395;37.360;-122.046;2024-01-30T03:06:27;6.72;;;2.60;;
66542;SDS011;53395;37.360;-122.046;2024-01-30T03:09:11;7.10;;;2.33;;
66542;SDS011;53395;37.360;-122.046;2024-01-30T03:11:56;7.00;;;2.50;;
66542;SDS011;53395;37.360;-122.046;2024-01-30T03:14:41;5.22;;;2.90;;
66542;SDS011;53395;37.360;-122.046;2024-01-30T03:17:25;6.30;;;2.60;;
66542;SDS011;53395;37.360;-122.046;2024-01-30T03:20:10;7.10;;;2.42;;
66542;SDS011;53395;37.360;-122.046;2024-01-30T03:22:55;8.23;;;3.10;;
66542;SDS011;53395;37.360;-122.046;2024-01-30T03:25:40;7.75;;;2.60;;
66542;SDS011;53395;37.360;-122.046;2024-01-30T03:28:24;7.60;;;2.80;;
66542;SDS011;53395;37.360;-122.046;2024-01-30T03:31:09;7.70;;;2.42;;
66542;SDS011;53395;37.360;-122.046;2024-01-30T03:33:53;5.97;;;2.63;;
66542;SDS011;53395;37.360;-122.046;2024-01-30T03:36:37;7.78;;;2.75;;
66542;SDS011;53395;37.360;-122.046;2024-01-30T03:39:22;5.53;;;2.25;;
66542;SDS011;53395;37.360;-122.046;2024-01-30T03:42:07;6.47;;;3.10;;
66542;SDS011;53395;37.360;-122.046;2024-01-30T03:44:51;6.60;;;3.35;;
66542;SDS011;53395;37.360;-122.046;2024-01-30T03:47:37;6.30;;;2.70;;
66542;SDS011;53395;37.360;-122.046;2024-01-30T03:50:21;6.55;;;2.80;;
66542;SDS011;53395;37.360;-122.046;2024-01-30T03:53:06;5.25;;;2.10;;
66542;SDS011;53395;37.360;-122.046;2024-01-30T03:55:51;9.68;;;3.08;;
66542;SDS011;53395;37.360;-122.046;2024-01-30T03:58:35;6.95;;;2.90;;
66542;SDS011;53395;37.360;-122.046;2024-01-30T04:01:20;6.85;;;2.70;;
66542;SDS011;53395;37.360;-122.046;2024-01-30T04:04:05;6.53;;;2.45;;
66542;SDS011;53395;37.360;-122.046;2024-01-30T04:06:49;7.55;;;2.90;;
66542;SDS011;53395;37.360;-122.046;2024-01-30T04:09:33;6.47;;;3.13;;
66542;SDS011;53395;37.360;-122.046;2024-01-30T04:12:18;9.90;;;3.13;;
66542;SDS011;53395;37.360;-122.046;2024-01-30T04:15:02;7.13;;;2.80;;
66542;SDS011;53395;37.360;-122.046;2024-01-30T04:17:47;5.20;;;2.75;;
66542;SDS011;53395;37.360;-122.046;2024-01-30T04:20:32;6.93;;;3.10;;
66542;SDS011;53395;37.360;-122.046;2024-01-30T04:23:16;8.68;;;2.90;;
66542;SDS011;53395;37.360;-122.046;2024-01-30T04:26:01;9.85;;;2.45;;
66542;SDS011;53395;37.360;-122.046;2024-01-30T04:28:47;6.75;;;2.30;;
66542;SDS011;53395;37.360;-122.046;2024-01-30T04:31:31;4.88;;;1.85;;
66542;SDS011;53395;37.360;-122.046;2024-01-30T04:34:15;6.13;;;2.22;;
66542;SDS011;53395;37.360;-122.046;2024-01-30T04:37:00;6.30;;;2.60;;
66542;SDS011;53395;37.360;-122.046;2024-01-30T04:39:44;4.90;;;2.00;;
66542;SDS011;53395;37.360;-122.046;2024-01-30T04:42:28;7.57;;;2.08;;
66542;SDS011;53395;37.360;-122.046;2024-01-30T04:45:13;9.77;;;2.58;;
66542;SDS011;53395;37.360;-122.046;2024-01-30T04:47:58;6.68;;;1.90;;
66542;SDS011;53395;37.360;-122.046;2024-01-30T04:50:42;8.23;;;2.10;;
66542;SDS011;53395;37.360;-122.046;2024-01-30T04:53:26;10.73;;;2.25;;
66542;SDS011;53395;37.360;-122.046;2024-01-30T04:56:11;8.80;;;2.20;;
66542;SDS011;53395;37.360;-122.046;2024-01-30T04:58:55;10.45;;;2.60;;
66542;SDS011;53395;37.360;-122.046;2024-01-30T05:01:40;5.35;;;2.10;;
66542;SDS011;53395;37.360;-122.046;2024-01-30T05:04:24;9.27;;;2.22;;
66542;SDS011;53395;37.360;-122.046;2024-01-30T05:07:09;8.23;;;2.28;;
66542;SDS011;53395;37.360;-122.046;2024-01-30T05:09:53;7.60;;;2.17;;
66542;SDS011;53395;37.360;-122.046;2024-01-30T05:12:38;5.22;;;2.65;;
66542;SDS011;53395;37.360;-122.046;2024-01-30T05:15:23;7.78;;;2.30;;
66542;SDS011;53395;37.360;-122.046;2024-01-30T05:18:07;6.22;;;2.53;;
66542;SDS011;53395;37.360;-122.046;2024-01-30T05:20:52;6.10;;;2.40;;
66542;SDS011;53395;37.360;-122.046;2024-01-30T05:23:36;5.53;;;2.58;;
66542;SDS011;53395;37.360;-122.046;2024-01-30T05:26:20;5.57;;;2.38;;
66542;SDS011;53395;37.360;-122.046;2024-01-30T05:29:06;4.63;;;2.10;;
66542;SDS011;53395;37.360;-122.046;2024-01-30T05:31:51;11.75;;;3.10;;
66542;SDS011;53395;37.360;-122.046;2024-01-30T05:34:35;6.88;;;2.40;;
66542;SDS011;53395;37.360;-122.046;2024-01-30T05:37:20;6.03;;;2.65;;
66542;SDS011;53395;37.360;-122.046;2024-01-30T05:40:04;7.82;;;2.60;;
66542;SDS011;53395;37.360;-122.046;2024-01-30T05:42:48;9.98;;;2.25;;
66542;SDS011;53395;37.360;-122.046;2024-01-30T05:45:33;5.15;;;2.63;;
66542;SDS011;53395;37.360;-122.046;2024-01-30T05:48:21;7.53;;;2.35;;
66542;SDS011;53395;37.360;-122.046;2024-01-30T05:51:06;7.70;;;2.40;;
66542;SDS011;53395;37.360;-122.046;2024-01-30T05:53:51;8.85;;;4.03;;
66542;SDS011;53395;37.360;-122.046;2024-01-30T05:56:36;9.95;;;3.63;;
66542;SDS011;53395;37.360;-122.046;2024-01-30T05:59:20;7.45;;;3.30;;
66542;SDS011;53395;37.360;-122.046;2024-01-30T06:02:04;11.88;;;4.00;;
66542;SDS011;53395;37.360;-122.046;2024-01-30T06:04:49;11.68;;;4.00;;
66542;SDS011;53395;37.360;-122.046;2024-01-30T06:07:34;14.20;;;5.57;;
66542;SDS011;53395;37.360;-122.046;2024-01-30T06:10:19;12.68;;;5.70;;
66542;SDS011;53395;37.360;-122.046;2024-01-30T06:13:03;12.15;;;4.18;;
66542;SDS011;53395;37.360;-122.046;2024-01-30T06:15:48;9.63;;;3.13;;
66542;SDS011;53395;37.360;-122.046;2024-01-30T06:18:32;6.25;;;2.50;;
66542;SDS011;53395;37.360;-122.046;2024-01-30T06:21:17;7.00;;;2.50;;
66542;SDS011;53395;37.360;-122.046;2024-01-30T06:24:02;5.30;;;2.30;;
66542;SDS011;53395;37.360;-122.046;2024-01-30T06:26:46;7.15;;;2.80;;
66542;SDS011;53395;37.360;-122.046;2024-01-30T06:29:31;10.65;;;2.70;;
66542;SDS011;53395;37.360;-122.046;2024-01-30T06:32:15;6.07;;;2.33;;
66542;SDS011;53395;37.360;-122.046;2024-01-30T06:35:00;8.48;;;2.78;;
66542;SDS011;53395;37.360;-122.046;2024-01-30T06:37:45;8.40;;;3.08;;
66542;SDS011;53395;37.360;-122.046;2024-01-30T06:40:29;7.20;;;2.00;;
66542;SDS011;53395;37.360;-122.046;2024-01-30T06:43:14;6.50;;;2.58;;
66542;SDS011;53395;37.360;-122.046;2024-01-30T06:45:58;7.70;;;2.33;;
66542;SDS011;53395;37.360;-122.046;2024-01-30T06:48:43;4.07;;;2.20;;
66542;SDS011;53395;37.360;-122.046;2024-01-30T06:51:28;4.03;;;1.73;;
66542;SDS011;53395;37.360;-122.046;2024-01-30T06:54:13;6.70;;;2.08;;
66542;SDS011;53395;37.360;-122.046;2024-01-30T06:56:58;5.13;;;2.28;;
66542;SDS011;53395;37.360;-122.046;2024-01-30T06:59:43;7.38;;;2.05;;
66542;SDS011;53395;37.360;-122.046;2024-01-30T07:02:28;8.07;;;2.03;;
66542;SDS011;53395;37.360;-122.046;2024-01-30T07:05:12;4.97;;;1.65;;
66542;SDS011;53395;37.360;-122.046;2024-01-30T07:07:58;5.07;;;1.85;;
66542;SDS011;53395;37.360;-122.046;2024-01-30T07:10:43;4.35;;;1.70;;
66542;SDS011;53395;37.360;-122.046;2024-01-30T07:13:28;4.20;;;1.42;;
66542;SDS011;53395;37.360;-122.046;2024-01-30T07:16:12;3.63;;;1.50;;
66542;SDS011;53395;37.360;-122.046;2024-01-30T07:18:56;7.32;;;1.75;;
66542;SDS011;53395;37.360;-122.046;2024-01-30T07:21:41;3.35;;;1.40;;
66542;SDS011;53395;37.360;-122.046;2024-01-30T07:24:25;3.10;;;1.38;;
66542;SDS011;53395;37.360;-122.046;2024-01-30T07:27:09;4.55;;;1.52;;
66542;SDS011;53395;37.360;-122.046;2024-01-30T07:29:54;4.43;;;1.23;;
66542;SDS011;53395;37.360;-122.046;2024-01-30T07:32:38;5.20;;;1.50;;
66542;SDS011;53395;37.360;-122.046;2024-01-30T07:35:22;6.28;;;1.70;;
66542;SDS011;53395;37.360;-122.046;2024-01-30T07:38:06;7.45;;;1.60;;
66542;SDS011;53395;37.360;-122.046;2024-01-30T07:40:51;4.80;;;1.10;;
66542;SDS011;53395;37.360;-122.046;2024-01-30T07:43:38;12.88;;;1.60;;
66542;SDS011;53395;37.360;-122.046;2024-01-30T07:46:22;5.40;;;1.70;;
66542;SDS011;53395;37.360;-122.046;2024-01-30T07:49:07;3.40;;;1.30;;
66542;SDS011;53395;37.360;-122.046;2024-01-30T07:51:51;2.70;;;1.40;;
66542;SDS011;53395;37.360;-122.046;2024-01-30T07:54:48;5.20;;;1.58;;
66542;SDS011;53395;37.360;-122.046;2024-01-30T07:57:33;6.47;;;1.70;;
66542;SDS011;53395;37.360;-122.046;2024-01-30T08:00:18;5.82;;;1.80;;
66542;SDS011;53395;37.360;-122.046;2024-01-30T08:03:04;4.50;;;2.00;;
66542;SDS011;53395;37.360;-122.046;2024-01-30T08:05:48;3.60;;;1.50;;
66542;SDS011;53395;37.360;-122.046;2024-01-30T08:08:32;4.30;;;1.60;;
66542;SDS011;53395;37.360;-122.046;2024-01-30T08:11:17;3.67;;;1.80;;
66542;SDS011;53395;37.360;-122.046;2024-01-30T08:14:02;5.50;;;1.73;;
66542;SDS011;53395;37.360;-122.046;2024-01-30T08:16:47;9.88;;;1.80;;
66542;SDS011;53395;37.360;-122.046;2024-01-30T08:19:31;3.65;;;1.35;;
66542;SDS011;53395;37.360;-122.046;2024-01-30T08:22:16;5.50;;;1.65;;
66542;SDS011;53395;37.360;-122.046;2024-01-30T08:25:00;4.47;;;1.58;;
66542;SDS011;53395;37.360;-122.046;2024-01-30T08:27:45;3.13;;;1.23;;
66542;SDS011;53395;37.360;-122.046;2024-01-30T08:30:30;3.65;;;1.30;;
66542;SDS011;53395;37.360;-122.046;2024-01-30T08:33:14;4.35;;;1.23;;
66542;SDS011;53395;37.360;-122.046;2024-01-30T08:35:59;6.57;;;2.08;;
66542;SDS011;53395;37.360;-122.046;2024-01-30T08:38:44;5.10;;;1.58;;
66542;SDS011;53395;37.360;-122.046;2024-01-30T08:41:28;5.15;;;1.30;;
66542;SDS011;53395;37.360;-122.046;2024-01-30T08:44:12;2.92;;;1.25;;
66542;SDS011;53395;37.360;-122.046;2024-01-30T08:46:56;3.63;;;1.17;;
66542;SDS011;53395;37.360;-122.046;2024-01-30T08:49:41;2.33;;;1.20;;
66542;SDS011;53395;37.360;-122.046;2024-01-30T08:52:27;2.92;;;1.10;;
66542;SDS011;53395;37.360;-122.046;2024-01-30T08:55:12;4.80;;;1.08;;
66542;SDS011;53395;37.360;-122.046;2024-01-30T08:57:56;7.45;;;1.10;;
66542;SDS011;53395;37.360;-122.046;2024-01-30T09:00:41;3.67;;;1.38;;
66542;SDS011;53395;37.360;-122.046;2024-01-30T09:03:25;5.70;;;1.20;;
66542;SDS011;53395;37.360;-122.046;2024-01-30T09:06:10;3.00;;;1.10;;
66542;SDS011;53395;37.360;-122.046;2024-01-30T09:08:54;2.65;;;1.00;;
66542;SDS011;53395;37.360;-122.046;2024-01-30T09:11:39;2.53;;;1.00;;
66542;SDS011;53395;37.360;-122.046;2024-01-30T09:14:23;6.85;;;1.05;;
66542;SDS011;53395;37.360;-122.046;2024-01-30T09:17:08;3.35;;;1.13;;
66542;SDS011;53395;37.360;-122.046;2024-01-30T09:19:52;3.53;;;1.20;;
66542;SDS011;53395;37.360;-122.046;2024-01-30T09:22:37;5.18;;;1.30;;
66542;SDS011;53395;37.360;-122.046;2024-01-30T09:25:21;4.20;;;1.00;;
66542;SDS011;53395;37.360;-122.046;2024-01-30T09:28:06;4.32;;;1.20;;
66542;SDS011;53395;37.360;-122.046;2024-01-30T09:30:50;3.63;;;1.30;;
66542;SDS011;53395;37.360;-122.046;2024-01-30T09:33:35;4.85;;;1.35;;
66542;SDS011;53395;37.360;-122.046;2024-01-30T09:36:20;5.53;;;1.25;;
66542;SDS011;53395;37.360;-122.046;2024-01-30T09:39:05;3.75;;;1.60;;
66542;SDS011;53395;37.360;-122.046;2024-01-30T09:44:35;3.88;;;1.30;;
66542;SDS011;53395;37.360;-122.046;2024-01-30T09:47:20;1.70;;;0.80;;
66542;SDS011;53395;37.360;-122.046;2024-01-30T09:50:05;4.45;;;1.35;;
66542;SDS011;53395;37.360;-122.046;2024-01-30T09:52:50;4.57;;;1.33;;
66542;SDS011;53395;37.360;-122.046;2024-01-30T09:55:35;3.17;;;1.20;;
66542;SDS011;53395;37.360;-122.046;2024-01-30T09:58:20;3.22;;;1.30;;
66542;SDS011;53395;37.360;-122.046;2024-01-30T10:01:05;4.68;;;1.52;;
66542;SDS011;53395;37.360;-122.046;2024-01-30T10:03:50;6.20;;;1.80;;
66542;SDS011;53395;37.360;-122.046;2024-01-30T10:06:37;5.10;;;1.60;;
66542;SDS011;53395;37.360;-122.046;2024-01-30T10:09:21;7.18;;;2.10;;
66542;SDS011;53395;37.360;-122.046;2024-01-30T10:12:06;6.03;;;2.08;;
66542;SDS011;53395;37.360;-122.046;2024-01-30T10:14:51;4.85;;;2.00;;
66542;SDS011;53395;37.360;-122.046;2024-01-30T10:17:37;6.55;;;2.22;;
66542;SDS011;53395;37.360;-122.046;2024-01-30T10:20:21;6.57;;;2.00;;
66542;SDS011;53395;37.360;-122.046;2024-01-30T10:23:06;4.20;;;2.00;;
66542;SDS011;53395;37.360;-122.046;2024-01-30T10:25:51;7.63;;;2.83;;
66542;SDS011;53395;37.360;-122.046;2024-01-30T10:28:36;7.60;;;2.13;;
66542;SDS011;53395;37.360;-122.046;2024-01-30T10:31:21;9.20;;;2.53;;
66542;SDS011;53395;37.360;-122.046;2024-01-30T10:34:06;10.50;;;3.40;;
66542;SDS011;53395;37.360;-122.046;2024-01-30T10:36:54;9.70;;;3.15;;
66542;SDS011;53395;37.360;-122.046;2024-01-30T10:39:41;7.60;;;2.53;;
66542;SDS011;53395;37.360;-122.046;2024-01-30T10:42:26;9.63;;;2.55;;
66542;SDS011;53395;37.360;-122.046;2024-01-30T10:45:12;8.07;;;2.78;;
66542;SDS011;53395;37.360;-122.046;2024-01-30T10:47:57;6.72;;;2.58;;
66542;SDS011;53395;37.360;-122.046;2024-01-30T10:50:42;7.28;;;2.80;;
66542;SDS011;53395;37.360;-122.046;2024-01-30T10:53:27;7.47;;;2.90;;
66542;SDS011;53395;37.360;-122.046;2024-01-30T10:56:12;9.18;;;2.20;;
66542;SDS011;53395;37.360;-122.046;2024-01-30T10:58:57;7.10;;;2.35;;
66542;SDS011;53395;37.360;-122.046;2024-01-30T11:01:41;9.73;;;2.55;;
66542;SDS011;53395;37.360;-122.046;2024-01-30T11:04:26;10.23;;;3.08;;
66542;SDS011;53395;37.360;-122.046;2024-01-30T11:07:16;5.22;;;2.22;;
66542;SDS011;53395;37.360;-122.046;2024-01-30T11:10:02;10.20;;;2.65;;
66542;SDS011;53395;37.360;-122.046;2024-01-30T11:12:47;6.75;;;2.70;;
66542;SDS011;53395;37.360;-122.046;2024-01-30T11:15:37;8.40;;;2.60;;
66542;SDS011;53395;37.360;-122.046;2024-01-30T11:18:25;6.97;;;2.40;;
66542;SDS011;53395;37.360;-122.046;2024-01-30T11:21:10;13.35;;;2.83;;
66542;SDS011;53395;37.360;-122.046;2024-01-30T11:27:14;7.30;;;2.60;;
66542;SDS011;53395;37.360;-122.046;2024-01-30T11:33:30;8.15;;;2.25;;
66542;SDS011;53395;37.360;-122.046;2024-01-30T11:36:15;7.47;;;2.20;;
66542;SDS011;53395;37.360;-122.046;2024-01-30T11:38:59;7.57;;;2.50;;
66542;SDS011;53395;37.360;-122.046;2024-01-30T11:41:45;9.48;;;2.60;;
66542;SDS011;53395;37.360;-122.046;2024-01-30T11:44:30;8.32;;;2.40;;
66542;SDS011;53395;37.360;-122.046;2024-01-30T11:47:14;6.75;;;2.80;;
66542;SDS011;53395;37.360;-122.046;2024-01-30T11:50:00;8.95;;;2.90;;
66542;SDS011;53395;37.360;-122.046;2024-01-30T11:52:44;13.63;;;3.38;;
66542;SDS011;53395;37.360;-122.046;2024-01-30T11:55:29;11.05;;;2.95;;
66542;SDS011;53395;37.360;-122.046;2024-01-30T11:58:14;10.02;;;2.80;;
66542;SDS011;53395;37.360;-122.046;2024-01-30T12:00:58;7.85;;;2.67;;
66542;SDS011;53395;37.360;-122.046;2024-01-30T12:03:49;10.82;;;2.30;;
66542;SDS011;53395;37.360;-122.046;2024-01-30T12:06:33;10.18;;;2.70;;
66542;SDS011;53395;37.360;-122.046;2024-01-30T12:09:18;9.18;;;2.53;;
66542;SDS011;53395;37.360;-122.046;2024-01-30T12:12:02;7.28;;;2.63;;
66542;SDS011;53395;37.360;-122.046;2024-01-30T12:14:47;14.02;;;2.45;;
66542;SDS011;53395;37.360;-122.046;2024-01-30T12:17:32;9.10;;;2.78;;
66542;SDS011;53395;37.360;-122.046;2024-01-30T12:20:19;10.35;;;3.35;;
66542;SDS011;53395;37.360;-122.046;2024-01-30T12:23:05;13.00;;;3.35;;
66542;SDS011;53395;37.360;-122.046;2024-01-30T12:25:49;10.93;;;2.83;;
66542;SDS011;53395;37.360;-122.046;2024-01-30T12:28:33;6.22;;;2.63;;
66542;SDS011;53395;37.360;-122.046;2024-01-30T12:31:18;10.25;;;3.03;;
66542;SDS011;53395;37.360;-122.046;2024-01-30T12:34:02;9.85;;;2.92;;
66542;SDS011;53395;37.360;-122.046;2024-01-30T12:36:47;6.15;;;2.72;;
66542;SDS011;53395;37.360;-122.046;2024-01-30T12:39:33;11.13;;;2.83;;
66542;SDS011;53395;37.360;-122.046;2024-01-30T12:42:18;14.15;;;3.67;;
66542;SDS011;53395;37.360;-122.046;2024-01-30T12:45:03;10.65;;;2.75;;
66542;SDS011;53395;37.360;-122.046;2024-01-30T12:47:51;10.80;;;3.00;;
66542;SDS011;53395;37.360;-122.046;2024-01-30T12:50:35;10.02;;;2.58;;
66542;SDS011;53395;37.360;-122.046;2024-01-30T12:53:20;11.20;;;2.78;;
66542;SDS011;53395;37.360;-122.046;2024-01-30T12:56:04;9.70;;;3.10;;
66542;SDS011;53395;37.360;-122.046;2024-01-30T12:58:49;10.38;;;3.05;;
66542;SDS011;53395;37.360;-122.046;2024-01-30T13:01:33;13.40;;;3.08;;
66542;SDS011;53395;37.360;-122.046;2024-01-30T13:04:18;9.10;;;2.88;;
66542;SDS011;53395;37.360;-122.046;2024-01-30T13:07:03;14.38;;;3.60;;
66542;SDS011;53395;37.360;-122.046;2024-01-30T13:09:47;14.60;;;3.42;;
66542;SDS011;53395;37.360;-122.046;2024-01-30T13:12:31;11.65;;;3.10;;
66542;SDS011;53395;37.360;-122.046;2024-01-30T13:15:19;9.20;;;2.83;;
66542;SDS011;53395;37.360;-122.046;2024-01-30T13:18:03;8.38;;;2.33;;
66542;SDS011;53395;37.360;-122.046;2024-01-30T13:20:49;10.57;;;2.72;;
66542;SDS011;53395;37.360;-122.046;2024-01-30T13:23:33;9.95;;;2.80;;
66542;SDS011;53395;37.360;-122.046;2024-01-30T13:26:18;12.40;;;2.70;;
66542;SDS011;53395;37.360;-122.046;2024-01-30T13:29:03;8.15;;;2.40;;
66542;SDS011;53395;37.360;-122.046;2024-01-30T13:31:47;13.68;;;2.55;;
66542;SDS011;53395;37.360;-122.046;2024-01-30T13:34:32;8.93;;;2.20;;
66542;SDS011;53395;37.360;-122.046;2024-01-30T13:37:16;7.63;;;2.33;;
66542;SDS011;53395;37.360;-122.046;2024-01-30T13:40:02;8.90;;;2.42;;
66542;SDS011;53395;37.360;-122.046;2024-01-30T13:42:46;12.68;;;2.60;;
66542;SDS011;53395;37.360;-122.046;2024-01-30T13:45:31;9.77;;;2.47;;
66542;SDS011;53395;37.360;-122.046;2024-01-30T13:48:15;10.48;;;2.50;;
66542;SDS011;53395;37.360;-122.046;2024-01-30T13:51:00;7.95;;;2.85;;
66542;SDS011;53395;37.360;-122.046;2024-01-30T13:53:44;9.70;;;2.70;;
66542;SDS011;53395;37.360;-122.046;2024-01-30T13:56:29;8.73;;;2.55;;
66542;SDS011;53395;37.360;-122.046;2024-01-30T13:59:14;12.10;;;2.40;;
66542;SDS011;53395;37.360;-122.046;2024-01-30T14:01:59;9.07;;;2.22;;
66542;SDS011;53395;37.360;-122.046;2024-01-30T14:04:43;7.75;;;1.98;;
66542;SDS011;53395;37.360;-122.046;2024-01-30T14:07:28;7.50;;;2.60;;
66542;SDS011;53395;37.360;-122.046;2024-01-30T14:10:12;9.90;;;2.33;;
66542;SDS011;53395;37.360;-122.046;2024-01-30T14:12:57;9.13;;;2.35;;
66542;SDS011;53395;37.360;-122.046;2024-01-30T14:15:41;9.43;;;2.70;;
66542;SDS011;53395;37.360;-122.046;2024-01-30T14:18:26;7.10;;;2.50;;
66542;SDS011;53395;37.360;-122.046;2024-01-30T14:21:10;5.82;;;2.13;;
66542;SDS011;53395;37.360;-122.046;2024-01-30T14:23:55;9.98;;;2.25;;
66542;SDS011;53395;37.360;-122.046;2024-01-30T14:26:39;12.13;;;2.13;;
66542;SDS011;53395;37.360;-122.046;2024-01-30T14:29:23;7.80;;;1.92;;
66542;SDS011;53395;37.360;-122.046;2024-01-30T14:32:08;7.63;;;2.30;;
66542;SDS011;53395;37.360;-122.046;2024-01-30T14:34:52;7.60;;;2.25;;
66542;SDS011;53395;37.360;-122.046;2024-01-30T14:37:37;13.55;;;2.53;;
66542;SDS011;53395;37.360;-122.046;2024-01-30T14:40:22;8.02;;;2.22;;
66542;SDS011;53395;37.360;-122.046;2024-01-30T14:43:06;8.50;;;2.38;;
66542;SDS011;53395;37.360;-122.046;2024-01-30T14:45:51;10.18;;;2.42;;
66542;SDS011;53395;37.360;-122.046;2024-01-30T14:48:36;15.07;;;3.05;;
66542;SDS011;53395;37.360;-122.046;2024-01-30T14:51:21;10.50;;;2.58;;
66542;SDS011;53395;37.360;-122.046;2024-01-30T14:54:06;11.43;;;2.22;;
66542;SDS011;53395;37.360;-122.046;2024-01-30T14:56:50;8.13;;;2.53;;
66542;SDS011;53395;37.360;-122.046;2024-01-30T14:59:35;10.45;;;2.10;;
66542;SDS011;53395;37.360;-122.046;2024-01-30T15:02:20;8.13;;;2.40;;
66542;SDS011;53395;37.360;-122.046;2024-01-30T15:05:04;11.18;;;2.33;;
66542;SDS011;53395;37.360;-122.046;2024-01-30T15:07:48;14.98;;;2.78;;
66542;SDS011;53395;37.360;-122.046;2024-01-30T15:10:32;11.23;;;2.30;;
66542;SDS011;53395;37.360;-122.046;2024-01-30T15:13:17;8.95;;;2.00;;
66542;SDS011;53395;37.360;-122.046;2024-01-30T15:16:02;10.52;;;2.63;;
66542;SDS011;53395;37.360;-122.046;2024-01-30T15:18:48;8.75;;;2.65;;
66542;SDS011;53395;37.360;-122.046;2024-01-30T15:21:33;10.45;;;2.30;;
66542;SDS011;53395;37.360;-122.046;2024-01-30T15:24:18;10.75;;;2.42;;
66542;SDS011;53395;37.360;-122.046;2024-01-30T15:27:04;9.75;;;3.15;;
66542;SDS011;53395;37.360;-122.046;2024-01-30T15:29:48;8.07;;;2.28;;
66542;SDS011;53395;37.360;-122.046;2024-01-30T15:32:33;11.05;;;2.35;;
66542;SDS011;53395;37.360;-122.046;2024-01-30T15:35:17;9.48;;;2.17;;
66542;SDS011;53395;37.360;-122.046;2024-01-30T15:38:01;8.15;;;1.95;;
66542;SDS011;53395;37.360;-122.046;2024-01-30T15:40:47;5.85;;;1.88;;
66542;SDS011;53395;37.360;-122.046;2024-01-30T15:43:31;8.70;;;2.10;;
66542;SDS011;53395;37.360;-122.046;2024-01-30T15:46:19;6.68;;;2.50;;
66542;SDS011;53395;37.360;-122.046;2024-01-30T15:49:05;10.02;;;2.08;;
66542;SDS011;53395;37.360;-122.046;2024-01-30T15:51:50;7.63;;;2.00;;
66542;SDS011;53395;37.360;-122.046;2024-01-30T15:54:34;13.68;;;2.45;;
66542;SDS011;53395;37.360;-122.046;2024-01-30T15:57:19;8.50;;;2.30;;
66542;SDS011;53395;37.360;-122.046;2024-01-30T16:00:04;6.82;;;2.55;;